Mansfield Center, CT (06250)

10:51 AM EDT on September 04, 2015 (GMT -0400)
Gurleyville Green | | Change Station
CLOSE
Current Station
Personal Weather Station
Location: Storrs Mansfield, CT
Elevation: 354 ft
Nearby Weather Stations

Elev 354 ft 41.82 °N, 72.22 °W | Updated 12 seconds ago

Partly Cloudy
Partly Cloudy
71.7 °F
Feels Like 74 °F
N
2.0
Wind Variable Wind from NNW
Gusts 10.0 mph

Today
High -- | Low -- °F
--% Chance of Precip.
Yesterday
High -- | Low -- °F
Precip. -- in
6:17 AM 7:17 PM
Waning Gibbous, 59% visible
Pressure 30.11 in
Visibility 10.0 miles
Clouds Few 7000 ft
Heat Index 74 °F
Dew Point 63 °F
Humidity 74%
Rainfall 0.00 in
Snow Depth Not available.
UV 5 out of 12
Pollen 8.80 out of 12
Air Quality Not available.
Flu Activity Not available.
METAR KIJD 041352Z AUTO 05009KT 10SM FEW070 23/14 A3012 RMK AO2 SLP196 T02330144
Pressure 30.11 in
Visibility 10.0 miles
Clouds Few 7000 ft
Heat Index 74 °F
Dew Point 63 °F
Humidity 74%
Rainfall 0.00 in
Snow Depth Not available.
UV 5 out of 12
Pollen 8.80 out of 12
Air Quality Not available.
Flu Activity Not available.
METAR KIJD 041352Z AUTO 05009KT 10SM FEW070 23/14 A3012 RMK AO2 SLP196 T02330144

10-Day Weather Forecast

×

Almanac

Astronomy

Sep. 04, 2015 Rise Set
Actual Time
Civil Twilight
Nautical Twilight
Astronomical Twilight
Moon
Length of Visible Light
Length of Day
Tomorrow will be .
, % of the Moon is Illuminated

Today's Extremes

State Highs State Lows

Community

WunderPhotos

Upload Photos

1,852,187 photos uploaded!

WunderBlogs® & News

Nearby

Air Quality

  Air Quality AQ Index Pollutant
Not available.

Snow Depth

Station Depth Elevation

Earthquake Activity

City Distance Mag. Time & Date
Minimum magnitude displayed is 2.5.

Coastal Water Temperatures

Place Temperature

Stations

Nearby Weather Stations

Station Location Temp. Windchill Dew Point Humidity Wind Precip. Elev Updated Type